Terminal Aerodrome Forecast
Issued by NWS Albuquerque, NM

Home | Current Version | Previous Version | Text Only | Print | Product List | Glossary On
Versions: 1 2 3 4 5 6 7 8 9 10 11 12 13 14 15 16 17
000
FTUS45 KABQ 202100 AAA
TAFABQ
TAF AMD
KABQ 202128Z 2021/2118 06011KT P6SM VCTS BKN060CB
      TEMPO 2021/2023 VRB15G23KT SHRA BKN050
     FM202300 09010KT P6SM VCSH BKN060 BKN100
     FM210400 11005KT P6SM SCT060 BKN100=

USA.gov is the U.S. government's official web portal to all federal, state and local government web resources and services.